sensor_id;sensor_type;location;lat;lon;timestamp;pressure;altitude;pressure_sealevel;temperature;humidity
12897;BME280;6516;35.028;32.372;2023-10-31T00:00:04;100146.06;;;21.02;87.48
12897;BME280;6516;35.028;32.372;2023-10-31T00:02:37;100146.22;;;20.99;87.61
12897;BME280;6516;35.028;32.372;2023-10-31T00:05:07;100142.59;;;21.00;88.13
12897;BME280;6516;35.028;32.372;2023-10-31T00:07:35;100140.06;;;20.97;87.73
12897;BME280;6516;35.028;32.372;2023-10-31T00:10:03;100140.19;;;20.95;88.06
12897;BME280;6516;35.028;32.372;2023-10-31T00:12:32;100138.56;;;20.93;88.97
12897;BME280;6516;35.028;32.372;2023-10-31T00:15:00;100140.19;;;20.95;89.34
12897;BME280;6516;35.028;32.372;2023-10-31T00:17:27;100142.75;;;20.97;91.27
12897;BME280;6516;35.028;32.372;2023-10-31T00:19:55;100145.44;;;20.97;92.79
12897;BME280;6516;35.028;32.372;2023-10-31T00:22:25;100147.09;;;20.99;93.61
12897;BME280;6516;35.028;32.372;2023-10-31T00:24:52;100139.81;;;21.01;95.22
12897;BME280;6516;35.028;32.372;2023-10-31T00:27:20;100135.13;;;21.05;96.30
12897;BME280;6516;35.028;32.372;2023-10-31T00:29:48;100139.66;;;21.04;95.18
12897;BME280;6516;35.028;32.372;2023-10-31T00:32:16;100133.78;;;20.98;94.19
12897;BME280;6516;35.028;32.372;2023-10-31T00:34:43;100135.44;;;21.00;94.78
12897;BME280;6516;35.028;32.372;2023-10-31T00:37:11;100131.78;;;21.01;95.88
12897;BME280;6516;35.028;32.372;2023-10-31T00:39:40;100138.78;;;21.04;96.52
12897;BME280;6516;35.028;32.372;2023-10-31T00:42:08;100128.94;;;21.04;97.29
12897;BME280;6516;35.028;32.372;2023-10-31T00:44:36;100138.78;;;21.04;97.82
12897;BME280;6516;35.028;32.372;2023-10-31T00:47:04;100135.63;;;21.11;99.09
12897;BME280;6516;35.028;32.372;2023-10-31T00:49:32;100138.56;;;20.93;97.23
12897;BME280;6516;35.028;32.372;2023-10-31T00:52:00;100135.91;;;20.77;95.02
12897;BME280;6516;35.028;32.372;2023-10-31T00:54:27;100138.94;;;20.71;95.28
12897;BME280;6516;35.028;32.372;2023-10-31T00:56:57;100133.56;;;20.71;96.95
12897;BME280;6516;35.028;32.372;2023-10-31T00:59:24;100131.69;;;20.73;98.52
12897;BME280;6516;35.028;32.372;2023-10-31T01:01:52;100132.44;;;20.75;99.68
12897;BME280;6516;35.028;32.372;2023-10-31T01:04:20;100125.47;;;20.73;98.57
12897;BME280;6516;35.028;32.372;2023-10-31T01:06:48;100125.75;;;20.68;98.50
12897;BME280;6516;35.028;32.372;2023-10-31T01:09:16;100124.53;;;20.58;98.94
12897;BME280;6516;35.028;32.372;2023-10-31T01:11:43;100126.38;;;20.58;99.09
12897;BME280;6516;35.028;32.372;2023-10-31T01:14:13;100124.66;;;20.57;99.24
12897;BME280;6516;35.028;32.372;2023-10-31T01:16:40;100122.28;;;20.66;100.00
12897;BME280;6516;35.028;32.372;2023-10-31T01:19:08;100126.59;;;20.69;100.00
12897;BME280;6516;35.028;32.372;2023-10-31T01:21:36;100121.44;;;20.66;100.00
12897;BME280;6516;35.028;32.372;2023-10-31T01:24:04;100115.69;;;20.58;100.00
12897;BME280;6516;35.028;32.372;2023-10-31T01:26:33;100115.59;;;20.59;100.00
12897;BME280;6516;35.028;32.372;2023-10-31T01:29:01;100117.13;;;20.63;100.00
12897;BME280;6516;35.028;32.372;2023-10-31T01:31:31;100112.47;;;20.67;100.00
12897;BME280;6516;35.028;32.372;2023-10-31T01:34:00;100105.78;;;20.74;100.00
12897;BME280;6516;35.028;32.372;2023-10-31T01:36:28;100114.13;;;20.83;100.00
12897;BME280;6516;35.028;32.372;2023-10-31T01:38:55;100105.13;;;20.84;100.00
12897;BME280;6516;35.028;32.372;2023-10-31T01:41:23;100105.13;;;20.84;100.00
12897;BME280;6516;35.028;32.372;2023-10-31T01:43:51;100106.56;;;20.76;100.00
12897;BME280;6516;35.028;32.372;2023-10-31T01:46:19;100111.25;;;20.72;100.00
12897;BME280;6516;35.028;32.372;2023-10-31T01:48:48;100106.06;;;20.69;100.00
12897;BME280;6516;35.028;32.372;2023-10-31T01:51:16;100109.16;;;20.77;100.00
12897;BME280;6516;35.028;32.372;2023-10-31T01:53:44;100113.00;;;20.87;100.00
12897;BME280;6516;35.028;32.372;2023-10-31T01:56:12;100109.25;;;20.76;100.00
12897;BME280;6516;35.028;32.372;2023-10-31T01:58:41;100099.38;;;20.76;100.00
12897;BME280;6516;35.028;32.372;2023-10-31T02:01:09;100100.34;;;20.75;100.00
12897;BME280;6516;35.028;32.372;2023-10-31T02:03:36;100101.22;;;20.76;100.00
12897;BME280;6516;35.028;32.372;2023-10-31T02:06:06;100105.69;;;20.75;100.00
12897;BME280;6516;35.028;32.372;2023-10-31T02:08:34;100110.69;;;20.81;100.00
12897;BME280;6516;35.028;32.372;2023-10-31T02:11:02;100107.06;;;20.82;100.00
12897;BME280;6516;35.028;32.372;2023-10-31T02:13:31;100108.78;;;20.83;100.00
12897;BME280;6516;35.028;32.372;2023-10-31T02:15:59;100112.41;;;20.82;100.00
12897;BME280;6516;35.028;32.372;2023-10-31T02:18:27;100114.13;;;20.83;100.00
12897;BME280;6516;35.028;32.372;2023-10-31T02:20:55;100112.19;;;20.85;100.00
12897;BME280;6516;35.028;32.372;2023-10-31T02:23:24;100111.06;;;20.89;100.00
12897;BME280;6516;35.028;32.372;2023-10-31T02:25:52;100112.91;;;20.89;100.00
12897;BME280;6516;35.028;32.372;2023-10-31T02:28:20;100111.00;;;20.91;100.00
12897;BME280;6516;35.028;32.372;2023-10-31T02:30:47;100112.84;;;20.90;100.00
12897;BME280;6516;35.028;32.372;2023-10-31T02:33:15;100120.50;;;20.96;100.00
12897;BME280;6516;35.028;32.372;2023-10-31T02:35:43;100109.13;;;20.93;100.00
12897;BME280;6516;35.028;32.372;2023-10-31T02:38:13;100116.41;;;20.89;100.00
12897;BME280;6516;35.028;32.372;2023-10-31T02:40:42;100111.88;;;20.91;100.00
12897;BME280;6516;35.028;32.372;2023-10-31T02:43:10;100119.31;;;20.86;100.00
12897;BME280;6516;35.028;32.372;2023-10-31T02:45:38;100114.88;;;20.85;100.00
12897;BME280;6516;35.028;32.372;2023-10-31T02:48:05;100113.94;;;20.86;100.00
12897;BME280;6516;35.028;32.372;2023-10-31T02:50:33;100116.38;;;20.91;100.00
12897;BME280;6516;35.028;32.372;2023-10-31T02:53:01;100119.84;;;20.93;100.00
12897;BME280;6516;35.028;32.372;2023-10-31T02:55:29;100114.13;;;20.83;100.00
12897;BME280;6516;35.028;32.372;2023-10-31T02:57:59;100118.97;;;20.77;100.00
12897;BME280;6516;35.028;32.372;2023-10-31T03:00:26;100114.69;;;20.74;100.00
12897;BME280;6516;35.028;32.372;2023-10-31T03:02:54;100130.06;;;20.71;100.00
12897;BME280;6516;35.028;32.372;2023-10-31T03:05:22;100118.31;;;20.73;100.00
12897;BME280;6516;35.028;32.372;2023-10-31T03:07:49;100130.72;;;20.74;100.00
12897;BME280;6516;35.028;32.372;2023-10-31T03:10:19;100131.03;;;20.70;100.00
12897;BME280;6516;35.028;32.372;2023-10-31T03:12:47;100133.94;;;20.65;100.00
12897;BME280;6516;35.028;32.372;2023-10-31T03:15:16;100134.13;;;20.62;100.00
12897;BME280;6516;35.028;32.372;2023-10-31T03:17:44;100134.03;;;20.64;100.00
12897;BME280;6516;35.028;32.372;2023-10-31T03:20:12;100138.44;;;20.65;100.00
12897;BME280;6516;35.028;32.372;2023-10-31T03:22:39;100135.66;;;20.66;100.00
12897;BME280;6516;35.028;32.372;2023-10-31T03:25:07;100146.56;;;20.63;100.00
12897;BME280;6516;35.028;32.372;2023-10-31T03:27:35;100141.81;;;20.68;100.00
12897;BME280;6516;35.028;32.372;2023-10-31T03:30:04;100148.88;;;20.69;100.00
12897;BME280;6516;35.028;32.372;2023-10-31T03:32:33;100143.69;;;20.66;100.00
12897;BME280;6516;35.028;32.372;2023-10-31T03:35:01;100137.88;;;20.74;100.00
12897;BME280;6516;35.028;32.372;2023-10-31T03:37:29;100135.38;;;20.86;100.00
12897;BME280;6516;35.028;32.372;2023-10-31T03:39:57;100141.34;;;20.91;100.00
12897;BME280;6516;35.028;32.372;2023-10-31T03:42:24;100133.63;;;20.85;100.00
12897;BME280;6516;35.028;32.372;2023-10-31T03:44:52;100135.38;;;20.86;100.00
12897;BME280;6516;35.028;32.372;2023-10-31T03:47:20;100135.03;;;20.92;100.00
12897;BME280;6516;35.028;32.372;2023-10-31T03:49:49;100133.31;;;20.91;100.00
12897;BME280;6516;35.028;32.372;2023-10-31T03:52:17;100138.28;;;20.97;100.00
12897;BME280;6516;35.028;32.372;2023-10-31T03:54:45;100144.69;;;20.95;100.00
12897;BME280;6516;35.028;32.372;2023-10-31T03:57:13;100138.56;;;20.93;100.00
12897;BME280;6516;35.028;32.372;2023-10-31T03:59:41;100141.13;;;20.94;100.00
12897;BME280;6516;35.028;32.372;2023-10-31T04:02:09;100145.44;;;20.97;100.00
12897;BME280;6516;35.028;32.372;2023-10-31T04:04:36;100147.28;;;20.96;100.00
12897;BME280;6516;35.028;32.372;2023-10-31T04:07:06;100142.97;;;20.94;100.00
12897;BME280;6516;35.028;32.372;2023-10-31T04:09:33;100142.53;;;20.86;100.00
12897;BME280;6516;35.028;32.372;2023-10-31T04:12:01;100141.66;;;20.85;100.00
12897;BME280;6516;35.028;32.372;2023-10-31T04:14:29;100152.09;;;20.90;100.00
12897;BME280;6516;35.028;32.372;2023-10-31T04:16:57;100154.84;;;20.88;100.00
12897;BME280;6516;35.028;32.372;2023-10-31T04:19:24;100161.34;;;20.84;100.00
12897;BME280;6516;35.028;32.372;2023-10-31T04:21:53;100157.63;;;20.87;100.00
12897;BME280;6516;35.028;32.372;2023-10-31T04:24:22;100151.44;;;20.86;100.00
12897;BME280;6516;35.028;32.372;2023-10-31T04:26:50;100158.50;;;20.87;100.00
12897;BME280;6516;35.028;32.372;2023-10-31T04:29:17;100162.97;;;20.87;100.00
12897;BME280;6516;35.028;32.372;2023-10-31T04:31:45;100156.44;;;20.92;100.00
12897;BME280;6516;35.028;32.372;2023-10-31T04:34:13;100157.97;;;20.96;100.00
12897;BME280;6516;35.028;32.372;2023-10-31T04:36:41;100155.22;;;20.98;100.00
12897;BME280;6516;35.028;32.372;2023-10-31T04:39:09;100160.47;;;20.99;100.00
12897;BME280;6516;35.028;32.372;2023-10-31T04:41:38;100159.53;;;21.00;100.00
12897;BME280;6516;35.028;32.372;2023-10-31T04:44:06;100154.94;;;21.02;100.00
12897;BME280;6516;35.028;32.372;2023-10-31T04:46:33;100154.84;;;21.04;100.00
12897;BME280;6516;35.028;32.372;2023-10-31T04:49:01;100157.25;;;21.08;100.00
12897;BME280;6516;35.028;32.372;2023-10-31T04:51:33;100165.00;;;21.13;100.00
12897;BME280;6516;35.028;32.372;2023-10-31T04:54:01;100163.06;;;21.15;100.00
12897;BME280;6516;35.028;32.372;2023-10-31T04:56:29;100165.47;;;21.19;100.00
12897;BME280;6516;35.028;32.372;2023-10-31T04:58:58;100160.72;;;21.24;100.00
12897;BME280;6516;35.028;32.372;2023-10-31T05:01:26;100165.09;;;21.25;100.00
12897;BME280;6516;35.028;32.372;2023-10-31T05:03:54;100165.69;;;21.30;100.00
12897;BME280;6516;35.028;32.372;2023-10-31T05:06:22;100164.53;;;21.34;100.00
12897;BME280;6516;35.028;32.372;2023-10-31T05:08:50;100167.63;;;21.42;100.00
12897;BME280;6516;35.028;32.372;2023-10-31T05:11:18;100168.09;;;21.49;100.00
12897;BME280;6516;35.028;32.372;2023-10-31T05:13:46;100170.13;;;21.59;100.00
12897;BME280;6516;35.028;32.372;2023-10-31T05:16:15;100165.94;;;21.69;100.00
12897;BME280;6516;35.028;32.372;2023-10-31T05:18:43;100167.84;;;21.81;100.00
12897;BME280;6516;35.028;32.372;2023-10-31T05:21:11;100167.84;;;21.95;100.00
12897;BME280;6516;35.028;32.372;2023-10-31T05:23:39;100171.25;;;22.11;99.92
12897;BME280;6516;35.028;32.372;2023-10-31T05:26:07;100167.78;;;22.23;98.72
12897;BME280;6516;35.028;32.372;2023-10-31T05:28:34;100175.78;;;22.37;97.97
12897;BME280;6516;35.028;32.372;2023-10-31T05:31:02;100168.69;;;22.50;97.29
12897;BME280;6516;35.028;32.372;2023-10-31T05:33:32;100170.56;;;22.62;96.67
12897;BME280;6516;35.028;32.372;2023-10-31T05:35:59;100168.47;;;22.80;95.96
12897;BME280;6516;35.028;32.372;2023-10-31T05:38:28;100177.19;;;22.96;94.36
12897;BME280;6516;35.028;32.372;2023-10-31T05:40:55;100173.03;;;23.17;93.74
12897;BME280;6516;35.028;32.372;2023-10-31T05:43:23;100179.13;;;23.33;93.78
12897;BME280;6516;35.028;32.372;2023-10-31T05:45:51;100184.25;;;23.48;93.07
12897;BME280;6516;35.028;32.372;2023-10-31T05:48:18;100185.13;;;23.61;90.45
12897;BME280;6516;35.028;32.372;2023-10-31T05:50:47;100174.91;;;23.79;88.15
12897;BME280;6516;35.028;32.372;2023-10-31T05:53:15;100178.16;;;23.96;85.42
12897;BME280;6516;35.028;32.372;2023-10-31T05:55:43;100173.91;;;24.17;82.87
12897;BME280;6516;35.028;32.372;2023-10-31T05:58:11;100176.84;;;24.38;80.98
12897;BME280;6516;35.028;32.372;2023-10-31T06:00:39;100178.72;;;24.61;80.14
12897;BME280;6516;35.028;32.372;2023-10-31T06:03:06;100181.66;;;24.81;77.28
12897;BME280;6516;35.028;32.372;2023-10-31T06:05:34;100176.59;;;25.11;77.30
12897;BME280;6516;35.028;32.372;2023-10-31T06:08:04;100184.06;;;25.31;74.53
12897;BME280;6516;35.028;32.372;2023-10-31T06:10:31;100178.44;;;25.56;70.31
12897;BME280;6516;35.028;32.372;2023-10-31T06:13:00;100166.22;;;25.85;70.14
12897;BME280;6516;35.028;32.372;2023-10-31T06:15:27;100172.84;;;26.14;69.05
12897;BME280;6516;35.028;32.372;2023-10-31T06:17:55;100171.09;;;26.35;65.22
12897;BME280;6516;35.028;32.372;2023-10-31T06:20:23;100165.19;;;26.52;62.40
12897;BME280;6516;35.028;32.372;2023-10-31T06:22:51;100164.06;;;26.66;62.80
12897;BME280;6516;35.028;32.372;2023-10-31T06:25:20;100161.44;;;26.75;62.04
12897;BME280;6516;35.028;32.372;2023-10-31T06:27:48;100173.53;;;26.92;60.47
12897;BME280;6516;35.028;32.372;2023-10-31T06:30:16;100166.16;;;27.14;59.72
12897;BME280;6516;35.028;32.372;2023-10-31T06:32:44;100170.94;;;27.43;60.28
12897;BME280;6516;35.028;32.372;2023-10-31T06:35:10;100172.66;;;27.64;57.92
12897;BME280;6516;35.028;32.372;2023-10-31T06:37:38;100167.38;;;27.93;57.89
12897;BME280;6516;35.028;32.372;2023-10-31T06:40:07;100166.75;;;28.10;55.23
12897;BME280;6516;35.028;32.372;2023-10-31T06:42:37;100159.41;;;28.31;54.26
12897;BME280;6516;35.028;32.372;2023-10-31T06:45:05;100159.06;;;28.54;53.34
12897;BME280;6516;35.028;32.372;2023-10-31T06:47:34;100154.50;;;28.74;52.35
12897;BME280;6516;35.028;32.372;2023-10-31T06:50:02;100152.09;;;28.90;52.64
12897;BME280;6516;35.028;32.372;2023-10-31T06:52:30;100153.84;;;29.00;52.38
12897;BME280;6516;35.028;32.372;2023-10-31T06:54:57;100151.84;;;29.12;53.11
12897;BME280;6516;35.028;32.372;2023-10-31T06:57:25;100154.56;;;29.12;51.07
12897;BME280;6516;35.028;32.372;2023-10-31T06:59:55;100152.41;;;29.06;50.96
12897;BME280;6516;35.028;32.372;2023-10-31T07:02:22;100151.84;;;29.02;50.92
12897;BME280;6516;35.028;32.372;2023-10-31T07:04:51;100150.56;;;29.06;49.34
12897;BME280;6516;35.028;32.372;2023-10-31T07:07:19;100151.25;;;29.18;50.29
12897;BME280;6516;35.028;32.372;2023-10-31T07:09:47;100155.22;;;29.33;50.95
12897;BME280;6516;35.028;32.372;2023-10-31T07:12:15;100156.75;;;29.54;49.80
12897;BME280;6516;35.028;32.372;2023-10-31T07:14:42;100145.41;;;29.78;48.07
12897;BME280;6516;35.028;32.372;2023-10-31T07:17:12;100146.03;;;29.99;47.43
12897;BME280;6516;35.028;32.372;2023-10-31T07:19:39;100149.19;;;30.31;47.44
12897;BME280;6516;35.028;32.372;2023-10-31T07:22:07;100147.91;;;30.52;46.92
12897;BME280;6516;35.028;32.372;2023-10-31T07:24:35;100146.09;;;30.70;45.65
12897;BME280;6516;35.028;32.372;2023-10-31T07:27:03;100149.22;;;30.93;44.76
12897;BME280;6516;35.028;32.372;2023-10-31T07:29:31;100147.63;;;31.08;43.37
12897;BME280;6516;35.028;32.372;2023-10-31T07:31:59;100148.50;;;31.26;42.11
12897;BME280;6516;35.028;32.372;2023-10-31T07:34:29;100143.81;;;31.36;41.77
12897;BME280;6516;35.028;32.372;2023-10-31T07:36:57;100151.38;;;31.50;41.92
12897;BME280;6516;35.028;32.372;2023-10-31T07:39:26;100146.88;;;31.58;40.21
12897;BME280;6516;35.028;32.372;2023-10-31T07:41:53;100150.34;;;31.68;41.09
12897;BME280;6516;35.028;32.372;2023-10-31T07:44:21;100148.28;;;31.88;40.14
12897;BME280;6516;35.028;32.372;2023-10-31T07:46:49;100149.25;;;31.87;39.01
12897;BME280;6516;35.028;32.372;2023-10-31T07:49:17;100156.97;;;31.91;39.18
12897;BME280;6516;35.028;32.372;2023-10-31T07:51:46;100148.44;;;31.69;39.64
12897;BME280;6516;35.028;32.372;2023-10-31T07:54:14;100159.69;;;31.40;40.71
12897;BME280;6516;35.028;32.372;2023-10-31T07:56:42;100159.22;;;31.10;40.04
12897;BME280;6516;35.028;32.372;2023-10-31T07:59:10;100165.75;;;30.82;40.39
12897;BME280;6516;35.028;32.372;2023-10-31T08:01:38;100156.66;;;30.73;41.05
12897;BME280;6516;35.028;32.372;2023-10-31T08:04:06;100160.03;;;30.58;41.74
12897;BME280;6516;35.028;32.372;2023-10-31T08:06:34;100162.66;;;30.50;41.71
12897;BME280;6516;35.028;32.372;2023-10-31T08:09:03;100160.31;;;30.37;40.84
12897;BME280;6516;35.028;32.372;2023-10-31T08:11:31;100161.91;;;30.30;40.68
12897;BME280;6516;35.028;32.372;2023-10-31T08:14:00;100163.28;;;30.17;40.59
12897;BME280;6516;35.028;32.372;2023-10-31T08:16:28;100157.84;;;30.17;40.84
12897;BME280;6516;35.028;32.372;2023-10-31T08:18:56;100159.41;;;30.10;40.56
12897;BME280;6516;35.028;32.372;2023-10-31T08:21:24;100162.00;;;30.11;40.45
12897;BME280;6516;35.028;32.372;2023-10-31T08:23:54;100155.75;;;30.01;40.32
12897;BME280;6516;35.028;32.372;2023-10-31T08:26:23;100157.31;;;30.04;40.92
12897;BME280;6516;35.028;32.372;2023-10-31T08:28:51;100156.63;;;30.02;42.03
12897;BME280;6516;35.028;32.372;2023-10-31T08:31:18;100156.22;;;29.97;41.34
12897;BME280;6516;35.028;32.372;2023-10-31T08:33:46;100157.03;;;30.07;41.27
12897;BME280;6516;35.028;32.372;2023-10-31T08:36:14;100157.31;;;30.13;40.87
12897;BME280;6516;35.028;32.372;2023-10-31T08:38:42;100157.38;;;30.21;40.74
12897;BME280;6516;35.028;32.372;2023-10-31T08:41:10;100150.06;;;30.31;41.09
12897;BME280;6516;35.028;32.372;2023-10-31T08:43:39;100138.88;;;30.34;41.28
12897;BME280;6516;35.028;32.372;2023-10-31T08:46:07;100136.00;;;30.36;42.61
12897;BME280;6516;35.028;32.372;2023-10-31T08:48:35;100139.72;;;30.35;43.88
12897;BME280;6516;35.028;32.372;2023-10-31T08:51:03;100140.28;;;30.38;43.67
12897;BME280;6516;35.028;32.372;2023-10-31T08:53:31;100148.03;;;30.33;44.13
12897;BME280;6516;35.028;32.372;2023-10-31T08:55:59;100140.66;;;30.26;44.80
12897;BME280;6516;35.028;32.372;2023-10-31T08:58:28;100137.69;;;30.19;45.64
12897;BME280;6516;35.028;32.372;2023-10-31T09:00:57;100137.97;;;30.16;45.97
12897;BME280;6516;35.028;32.372;2023-10-31T09:03:25;100128.25;;;30.14;45.66
12897;BME280;6516;35.028;32.372;2023-10-31T09:05:53;100129.28;;;30.03;45.33
12897;BME280;6516;35.028;32.372;2023-10-31T09:08:21;100123.63;;;29.97;46.34
12897;BME280;6516;35.028;32.372;2023-10-31T09:10:49;100131.66;;;29.89;45.80
12897;BME280;6516;35.028;32.372;2023-10-31T09:13:16;100132.56;;;29.80;46.07
12897;BME280;6516;35.028;32.372;2023-10-31T09:15:44;100124.91;;;29.66;46.44
12897;BME280;6516;35.028;32.372;2023-10-31T09:18:14;100117.75;;;29.65;46.81
12897;BME280;6516;35.028;32.372;2023-10-31T09:20:42;100122.06;;;29.58;47.15
12897;BME280;6516;35.028;32.372;2023-10-31T09:23:09;100111.78;;;29.52;46.83
12897;BME280;6516;35.028;32.372;2023-10-31T09:25:37;100109.06;;;29.52;47.15
12897;BME280;6516;35.028;32.372;2023-10-31T09:28:05;100104.31;;;29.54;47.55
12897;BME280;6516;35.028;32.372;2023-10-31T09:30:33;100099.63;;;29.56;47.15
12897;BME280;6516;35.028;32.372;2023-10-31T09:33:00;100105.19;;;29.54;46.99
12897;BME280;6516;35.028;32.372;2023-10-31T09:35:30;100095.94;;;29.57;46.26
12897;BME280;6516;35.028;32.372;2023-10-31T09:37:57;100099.88;;;29.62;45.23
12897;BME280;6516;35.028;32.372;2023-10-31T09:40:25;100107.72;;;29.75;44.84
12897;BME280;6516;35.028;32.372;2023-10-31T09:42:53;100101.94;;;29.87;44.55
12897;BME280;6516;35.028;32.372;2023-10-31T09:45:21;100091.84;;;30.07;44.37
12897;BME280;6516;35.028;32.372;2023-10-31T09:47:49;100086.78;;;30.39;43.27
12897;BME280;6516;35.028;32.372;2023-10-31T09:50:17;100078.13;;;30.88;42.55
12897;BME280;6516;35.028;32.372;2023-10-31T09:52:46;100068.03;;;31.23;41.38
12897;BME280;6516;35.028;32.372;2023-10-31T09:55:14;100073.16;;;31.60;40.34
12897;BME280;6516;35.028;32.372;2023-10-31T09:57:42;100063.66;;;31.97;39.89
12897;BME280;6516;35.028;32.372;2023-10-31T10:00:11;100063.31;;;32.34;38.36
12897;BME280;6516;35.028;32.372;2023-10-31T10:02:40;100063.31;;;32.50;35.76
12897;BME280;6516;35.028;32.372;2023-10-31T10:05:09;100048.03;;;32.81;35.67
12897;BME280;6516;35.028;32.372;2023-10-31T10:07:41;100051.97;;;32.94;35.62
12897;BME280;6516;35.028;32.372;2023-10-31T10:10:12;100048.88;;;32.97;34.61
12897;BME280;6516;35.028;32.372;2023-10-31T10:12:42;100042.03;;;32.93;34.99
12897;BME280;6516;35.028;32.372;2023-10-31T10:15:10;100048.69;;;32.75;35.15
12897;BME280;6516;35.028;32.372;2023-10-31T10:17:39;100039.13;;;32.63;35.78
12897;BME280;6516;35.028;32.372;2023-10-31T10:20:08;100037.75;;;32.35;36.97
12897;BME280;6516;35.028;32.372;2023-10-31T10:22:37;100037.31;;;32.06;38.48
12897;BME280;6516;35.028;32.372;2023-10-31T10:25:06;100025.00;;;31.94;39.04
12897;BME280;6516;35.028;32.372;2023-10-31T10:27:35;100024.03;;;31.69;40.19
12897;BME280;6516;35.028;32.372;2023-10-31T10:30:09;100024.66;;;31.55;41.52
12897;BME280;6516;35.028;32.372;2023-10-31T10:32:38;100020.97;;;31.64;41.66
12897;BME280;6516;35.028;32.372;2023-10-31T10:35:06;100020.91;;;31.90;41.06
12897;BME280;6516;35.028;32.372;2023-10-31T10:37:37;100020.31;;;32.20;40.26
12897;BME280;6516;35.028;32.372;2023-10-31T10:40:07;100017.66;;;32.52;40.12
12897;BME280;6516;35.028;32.372;2023-10-31T10:42:46;100006.72;;;32.76;41.42
12897;BME280;6516;35.028;32.372;2023-10-31T10:45:15;100008.97;;;32.88;40.26
12897;BME280;6516;35.028;32.372;2023-10-31T10:47:46;100002.63;;;33.12;41.10
12897;BME280;6516;35.028;32.372;2023-10-31T10:50:14;100003.97;;;33.24;41.77
12897;BME280;6516;35.028;32.372;2023-10-31T10:52:47;100006.53;;;33.17;41.63
12897;BME280;6516;35.028;32.372;2023-10-31T10:55:20;100002.13;;;33.16;42.43
12897;BME280;6516;35.028;32.372;2023-10-31T10:57:59;100004.31;;;33.13;42.72
12897;BME280;6516;35.028;32.372;2023-10-31T11:00:32;100008.75;;;33.22;43.39
12897;BME280;6516;35.028;32.372;2023-10-31T11:03:01;100000.22;;;33.25;43.36
12897;BME280;6516;35.028;32.372;2023-10-31T11:05:30;100004.47;;;33.27;42.93
12897;BME280;6516;35.028;32.372;2023-10-31T11:07:59;100001.75;;;33.19;41.74
12897;BME280;6516;35.028;32.372;2023-10-31T11:10:29;100000.22;;;33.17;42.86
12897;BME280;6516;35.028;32.372;2023-10-31T11:12:58;99997.19;;;32.96;44.37
12897;BME280;6516;35.028;32.372;2023-10-31T11:15:26;99996.19;;;32.97;43.58
12897;BME280;6516;35.028;32.372;2023-10-31T11:17:55;100000.28;;;32.85;44.82
12897;BME280;6516;35.028;32.372;2023-10-31T11:20:24;100003.50;;;32.72;45.75
12897;BME280;6516;35.028;32.372;2023-10-31T11:22:55;99997.53;;;32.53;45.87
12897;BME280;6516;35.028;32.372;2023-10-31T11:25:23;100004.88;;;32.44;45.45
12897;BME280;6516;35.028;32.372;2023-10-31T11:27:51;100001.25;;;32.28;45.91
12897;BME280;6516;35.028;32.372;2023-10-31T11:30:22;100001.91;;;32.22;46.49
12897;BME280;6516;35.028;32.372;2023-10-31T11:32:55;100007.00;;;32.09;47.35
12897;BME280;6516;35.028;32.372;2023-10-31T11:35:23;100009.53;;;31.94;47.69
12897;BME280;6516;35.028;32.372;2023-10-31T11:38:01;100007.22;;;31.74;49.51
12897;BME280;6516;35.028;32.372;2023-10-31T11:40:35;100009.47;;;31.45;48.60
12897;BME280;6516;35.028;32.372;2023-10-31T11:43:05;100010.94;;;31.14;47.55
12897;BME280;6516;35.028;32.372;2023-10-31T11:45:37;100015.28;;;30.99;47.35
12897;BME280;6516;35.028;32.372;2023-10-31T11:48:10;100007.41;;;30.88;49.56
12897;BME280;6516;35.028;32.372;2023-10-31T11:50:38;100001.75;;;30.81;50.48
12897;BME280;6516;35.028;32.372;2023-10-31T11:53:08;100003.06;;;30.77;51.25
12897;BME280;6516;35.028;32.372;2023-10-31T11:55:40;100000.56;;;30.84;49.75
12897;BME280;6516;35.028;32.372;2023-10-31T11:58:16;99990.22;;;30.87;50.15
12897;BME280;6516;35.028;32.372;2023-10-31T12:00:47;99989.69;;;30.84;49.81
12897;BME280;6516;35.028;32.372;2023-10-31T12:03:17;99985.94;;;30.85;50.45
12897;BME280;6516;35.028;32.372;2023-10-31T12:05:53;99985.16;;;30.92;50.65
12897;BME280;6516;35.028;32.372;2023-10-31T12:08:28;99986.53;;;30.71;52.57
12897;BME280;6516;35.028;32.372;2023-10-31T12:11:07;99982.88;;;30.45;53.01
12897;BME280;6516;35.028;32.372;2023-10-31T12:13:37;99987.84;;;30.32;52.97
12897;BME280;6516;35.028;32.372;2023-10-31T12:16:08;99980.84;;;30.12;52.02
12897;BME280;6516;35.028;32.372;2023-10-31T12:18:38;99987.97;;;29.95;54.92
12897;BME280;6516;35.028;32.372;2023-10-31T12:21:06;99991.63;;;29.86;57.20
12897;BME280;6516;35.028;32.372;2023-10-31T12:23:36;99983.13;;;29.72;56.27
12897;BME280;6516;35.028;32.372;2023-10-31T12:26:04;99989.56;;;29.71;56.88
12897;BME280;6516;35.028;32.372;2023-10-31T12:28:32;99983.06;;;29.81;56.55
12897;BME280;6516;35.028;32.372;2023-10-31T12:31:00;99987.34;;;30.01;56.97
12897;BME280;6516;35.028;32.372;2023-10-31T12:33:31;99980.34;;;30.26;56.07
12897;BME280;6516;35.028;32.372;2023-10-31T12:36:00;99980.94;;;30.37;55.33
12897;BME280;6516;35.028;32.372;2023-10-31T12:38:28;99986.84;;;30.33;55.51
12897;BME280;6516;35.028;32.372;2023-10-31T12:40:57;99978.00;;;30.31;55.43
12897;BME280;6516;35.028;32.372;2023-10-31T12:43:25;99992.06;;;30.26;55.95
12897;BME280;6516;35.028;32.372;2023-10-31T12:45:55;99985.84;;;30.16;56.09
12897;BME280;6516;35.028;32.372;2023-10-31T12:48:24;99987.66;;;29.98;55.99
12897;BME280;6516;35.028;32.372;2023-10-31T12:51:07;99995.78;;;29.81;56.88
12897;BME280;6516;35.028;32.372;2023-10-31T12:53:35;99987.44;;;29.65;56.45